createdAt,value
2023-04-12T00:00:57.898Z,74.94
2023-04-12T00:02:00.109Z,74.68
2023-04-12T00:03:06.225Z,75.06
2023-04-12T00:04:10.206Z,75.19
2023-04-12T00:05:13.971Z,75.24
2023-04-12T00:06:19.085Z,75.33
2023-04-12T00:07:23.170Z,75.56
2023-04-12T00:08:33.042Z,75.50
2023-04-12T00:09:36.575Z,76.39
2023-04-12T00:10:38.767Z,76.11
2023-04-12T00:11:40.900Z,76.33
2023-04-12T00:12:43.051Z,76.30
2023-04-12T00:13:45.161Z,76.18
2023-04-12T00:14:47.619Z,76.33
2023-04-12T00:15:49.793Z,76.35
2023-04-12T00:16:52.392Z,76.62
2023-04-12T00:17:54.527Z,76.59
2023-04-12T00:18:57.524Z,76.67
2023-04-12T00:19:59.666Z,76.80
2023-04-12T00:21:01.781Z,76.68
2023-04-12T00:22:03.878Z,76.90
2023-04-12T00:23:06.816Z,77.06
2023-04-12T00:24:08.962Z,76.85
2023-04-12T00:25:11.265Z,76.92
2023-04-12T00:26:14.679Z,76.90
2023-04-12T00:27:16.823Z,77.02
2023-04-12T00:28:19.237Z,77.19
2023-04-12T00:29:21.382Z,77.27
2023-04-12T00:30:23.620Z,77.34
2023-04-12T00:31:25.928Z,77.49
2023-04-12T00:32:28.116Z,77.43
2023-04-12T00:33:30.387Z,77.23
2023-04-12T00:34:32.493Z,77.20
2023-04-12T00:35:34.690Z,77.17
2023-04-12T00:36:36.818Z,77.39
2023-04-12T00:37:39.077Z,77.56
2023-04-12T00:38:42.340Z,77.36
2023-04-12T00:39:44.556Z,77.57
2023-04-12T00:40:46.723Z,77.71
2023-04-12T00:41:48.823Z,77.33
2023-04-12T00:42:51.019Z,77.37
2023-04-12T00:43:53.171Z,77.21
2023-04-12T00:44:55.430Z,77.42
2023-04-12T00:45:58.418Z,77.35
2023-04-12T00:47:00.868Z,76.90
2023-04-12T00:48:05.515Z,76.93
2023-04-12T00:49:07.696Z,76.94
2023-04-12T00:50:10.992Z,77.16
2023-04-12T00:51:13.117Z,76.88
2023-04-12T00:52:15.776Z,76.88
2023-04-12T00:53:18.513Z,76.92
2023-04-12T00:54:22.223Z,77.09
2023-04-12T00:55:24.439Z,76.75
2023-04-12T00:56:28.571Z,76.97
2023-04-12T00:57:36.626Z,77.06
2023-04-12T00:58:38.881Z,76.56
2023-04-12T00:59:41.002Z,76.87
2023-04-12T01:00:53.075Z,77.16
2023-04-12T01:01:56.823Z,76.96
2023-04-12T01:03:02.520Z,76.85
2023-04-12T01:04:05.155Z,76.89
2023-04-12T01:05:07.725Z,76.82
2023-04-12T01:06:34.073Z,76.83
2023-04-12T01:07:48.098Z,76.91
2023-04-12T01:09:17.699Z,77.30
2023-04-12T01:10:48.850Z,77.19
2023-04-12T01:12:01.815Z,77.32
2023-04-12T01:13:16.887Z,77.64
2023-04-12T01:14:30.312Z,77.44
2023-04-12T01:15:35.156Z,77.70
2023-04-12T01:16:51.295Z,77.73
2023-04-12T01:17:58.956Z,77.95
2023-04-12T01:19:05.114Z,77.74
2023-04-12T01:20:16.803Z,77.96
2023-04-12T01:21:25.530Z,78.15
2023-04-12T01:22:38.687Z,77.84
2023-04-12T01:24:01.902Z,78.13
2023-04-12T01:25:24.078Z,77.86
2023-04-12T01:26:52.344Z,77.88
2023-04-12T01:28:00.396Z,78.03
2023-04-12T01:29:08.242Z,78.57
2023-04-12T01:30:13.038Z,78.55
2023-04-12T01:31:15.099Z,78.76
2023-04-12T01:32:18.403Z,78.85
2023-04-12T01:33:21.039Z,79.11
2023-04-12T01:34:23.713Z,78.83
2023-04-12T01:35:28.779Z,78.52
2023-04-12T01:36:31.307Z,78.74
2023-04-12T01:37:33.635Z,78.80
2023-04-12T01:38:35.845Z,78.76
2023-04-12T01:39:38.159Z,78.72
2023-04-12T01:40:43.494Z,78.51
2023-04-12T01:41:48.878Z,78.74
2023-04-12T01:42:50.969Z,78.94
2023-04-12T01:43:53.093Z,79.04
2023-04-12T01:44:55.189Z,78.72
2023-04-12T01:45:57.370Z,78.74
2023-04-12T01:46:59.649Z,78.70
2023-04-12T01:48:02.471Z,78.71
2023-04-12T01:49:04.869Z,78.38
2023-04-12T01:50:18.850Z,78.36
2023-04-12T01:51:34.536Z,78.28
2023-04-12T01:52:41.207Z,77.86
2023-04-12T01:53:57.806Z,78.01
2023-04-12T01:55:02.511Z,77.82
2023-04-12T01:56:08.486Z,77.66
2023-04-12T01:57:11.195Z,77.27
2023-04-12T01:58:15.485Z,77.44
2023-04-12T01:59:18.845Z,77.30
2023-04-12T02:00:21.119Z,77.00
2023-04-12T02:01:23.432Z,76.92
2023-04-12T02:02:26.090Z,76.89
2023-04-12T02:03:30.728Z,76.80
2023-04-12T02:04:34.682Z,76.94
2023-04-12T02:05:36.811Z,77.25
2023-04-12T02:06:39.533Z,76.84
2023-04-12T02:07:42.239Z,76.71
2023-04-12T02:08:44.800Z,76.60
2023-04-12T02:09:46.902Z,76.16
2023-04-12T02:10:49.116Z,76.23
2023-04-12T02:11:51.291Z,76.64
2023-04-12T02:12:54.439Z,76.71
2023-04-12T02:13:56.853Z,76.34
2023-04-12T02:15:00.364Z,76.50
2023-04-12T02:16:02.621Z,76.20
2023-04-12T02:17:05.554Z,76.13
2023-04-12T02:18:07.865Z,75.99
2023-04-12T02:19:10.713Z,76.20
2023-04-12T02:20:13.169Z,76.30
2023-04-12T02:21:15.431Z,76.47
2023-04-12T02:22:17.549Z,76.32
2023-04-12T02:23:19.676Z,75.90
2023-04-12T02:24:21.912Z,75.94
2023-04-12T02:25:24.195Z,75.84
2023-04-12T02:26:26.458Z,75.97
2023-04-12T02:27:28.543Z,76.21
2023-04-12T02:28:30.834Z,76.41
2023-04-12T02:29:32.982Z,76.36
2023-04-12T02:30:35.448Z,76.44
2023-04-12T02:31:39.097Z,76.68
2023-04-12T02:32:44.374Z,76.55
2023-04-12T02:33:46.703Z,76.52
2023-04-12T02:34:51.528Z,76.32
2023-04-12T02:35:54.402Z,76.24
2023-04-12T02:36:56.555Z,76.54
2023-04-12T02:37:58.657Z,76.45
2023-04-12T02:39:00.869Z,76.28
2023-04-12T02:40:07.121Z,76.70
2023-04-12T02:41:09.291Z,77.12
2023-04-12T02:42:11.398Z,77.53
2023-04-12T02:43:13.636Z,77.19
2023-04-12T02:44:15.764Z,77.58
2023-04-12T02:45:17.872Z,77.07
2023-04-12T02:46:24.612Z,76.72
2023-04-12T02:47:29.193Z,76.91
2023-04-12T02:48:31.420Z,77.11
2023-04-12T02:49:33.506Z,77.19
2023-04-12T02:50:37.269Z,77.04
2023-04-12T02:51:39.395Z,77.29
2023-04-12T02:52:41.760Z,77.07
2023-04-12T02:53:43.954Z,77.14
2023-04-12T02:54:46.077Z,77.40
2023-04-12T02:55:48.298Z,77.43
2023-04-12T02:56:50.442Z,77.42
2023-04-12T02:57:53.651Z,77.48
2023-04-12T02:58:55.863Z,77.52
2023-04-12T02:59:57.966Z,77.22
2023-04-12T03:01:00.973Z,77.40
2023-04-12T03:02:03.306Z,77.32
2023-04-12T03:03:05.656Z,77.54
2023-04-12T03:04:08.063Z,77.56
2023-04-12T03:05:10.524Z,77.13
2023-04-12T03:06:12.633Z,77.72
2023-04-12T03:07:14.766Z,77.70
2023-04-12T03:08:16.926Z,78.10
2023-04-12T03:09:19.504Z,78.17
2023-04-12T03:10:21.712Z,77.79
2023-04-12T03:11:23.899Z,77.78
2023-04-12T03:12:26.036Z,77.78
2023-04-12T03:13:28.146Z,78.20
2023-04-12T03:14:30.376Z,78.12
2023-04-12T03:15:32.750Z,77.87
2023-04-12T03:16:35.646Z,77.86
2023-04-12T03:17:37.895Z,78.06
2023-04-12T03:18:40.054Z,77.84
2023-04-12T03:19:42.245Z,78.39
2023-04-12T03:20:47.365Z,77.90
2023-04-12T03:21:49.840Z,78.02
2023-04-12T03:22:51.969Z,78.15
2023-04-12T03:23:54.383Z,78.39
2023-04-12T03:24:56.622Z,78.11
2023-04-12T03:25:58.804Z,78.40
2023-04-12T03:27:04.629Z,78.48
2023-04-12T03:28:06.936Z,78.84
2023-04-12T03:29:11.185Z,78.76
2023-04-12T03:30:13.721Z,78.67
2023-04-12T03:31:21.631Z,78.35
2023-04-12T03:32:24.639Z,78.36
2023-04-12T03:33:27.583Z,78.28
2023-04-12T03:34:32.483Z,78.08
2023-04-12T03:35:34.715Z,77.92
2023-04-12T03:36:38.111Z,78.17
2023-04-12T03:37:43.640Z,78.47
2023-04-12T03:38:45.811Z,78.44
2023-04-12T03:39:48.416Z,78.48
2023-04-12T03:40:50.689Z,78.40
2023-04-12T03:41:53.365Z,78.02
2023-04-12T03:42:55.579Z,78.39
2023-04-12T03:43:57.892Z,78.37
2023-04-12T03:45:00.325Z,78.04
2023-04-12T03:46:03.857Z,78.33
2023-04-12T03:47:06.053Z,78.51
2023-04-12T03:48:08.347Z,78.48
2023-04-12T03:49:11.131Z,78.39
2023-04-12T03:50:13.267Z,78.64
2023-04-12T03:51:15.461Z,78.19
2023-04-12T03:52:17.539Z,77.99
2023-04-12T03:53:19.697Z,78.01
2023-04-12T03:54:23.084Z,77.90
2023-04-12T03:55:25.287Z,78.00
2023-04-12T03:56:27.404Z,77.91
2023-04-12T03:57:29.573Z,77.90
2023-04-12T03:58:33.910Z,77.88
2023-04-12T03:59:36.084Z,77.83
2023-04-12T04:00:38.294Z,77.48
2023-04-12T04:01:41.607Z,77.78
2023-04-12T04:02:43.820Z,77.59
2023-04-12T04:03:46.539Z,77.54
2023-04-12T04:04:48.956Z,76.82
2023-04-12T04:05:51.186Z,76.96
2023-04-12T04:06:53.434Z,76.61
2023-04-12T04:07:56.591Z,76.39
2023-04-12T04:08:58.772Z,76.46
2023-04-12T04:10:00.978Z,76.48
2023-04-12T04:11:03.109Z,76.15
2023-04-12T04:12:05.337Z,76.21
2023-04-12T04:13:07.460Z,76.19
2023-04-12T04:14:09.607Z,75.92
2023-04-12T04:15:11.885Z,75.85
2023-04-12T04:16:14.072Z,76.06
2023-04-12T04:17:16.245Z,75.95
2023-04-12T04:18:18.388Z,75.76
2023-04-12T04:19:21.268Z,75.39
2023-04-12T04:20:23.744Z,75.54
2023-04-12T04:21:26.863Z,75.66
2023-04-12T04:22:29.530Z,75.83
2023-04-12T04:23:39.841Z,75.65
2023-04-12T04:24:42.751Z,75.25
2023-04-12T04:25:45.456Z,75.12
2023-04-12T04:26:47.850Z,75.29
2023-04-12T04:27:51.087Z,75.49
2023-04-12T04:28:54.217Z,75.20
2023-04-12T04:29:59.662Z,75.35
2023-04-12T04:31:06.178Z,74.95
2023-04-12T04:32:08.536Z,75.02
2023-04-12T04:33:11.352Z,74.85
2023-04-12T04:34:13.759Z,74.26
2023-04-12T04:35:17.376Z,74.14
2023-04-12T04:36:19.561Z,73.75
2023-04-12T04:37:21.678Z,74.08
2023-04-12T04:38:26.248Z,74.05
2023-04-12T04:39:28.488Z,73.73
2023-04-12T04:40:32.007Z,73.45
2023-04-12T04:41:41.478Z,73.56
2023-04-12T04:42:46.392Z,73.34
2023-04-12T04:43:48.782Z,73.17
2023-04-12T04:45:02.616Z,72.89
2023-04-12T04:46:04.951Z,72.63
2023-04-12T04:47:08.674Z,72.67
2023-04-12T04:48:11.139Z,72.50
2023-04-12T04:49:13.311Z,72.22
2023-04-12T04:50:15.699Z,71.99
2023-04-12T04:51:18.206Z,71.92
2023-04-12T04:52:20.430Z,71.95
2023-04-12T04:53:22.803Z,71.60
2023-04-12T04:54:24.983Z,71.58
2023-04-12T04:55:27.714Z,71.43
2023-04-12T04:56:29.816Z,71.11
2023-04-12T04:57:31.919Z,70.91
2023-04-12T04:58:34.022Z,70.96
2023-04-12T04:59:36.298Z,70.98
2023-04-12T05:00:38.887Z,70.89
2023-04-12T05:01:41.415Z,70.54
2023-04-12T05:02:43.929Z,69.85
2023-04-12T05:03:46.326Z,69.66
2023-04-12T05:04:48.524Z,69.71
2023-04-12T05:05:50.894Z,69.61
2023-04-12T05:06:53.789Z,69.34
2023-04-12T05:07:57.396Z,68.93
2023-04-12T05:09:01.735Z,69.01
2023-04-12T05:10:04.539Z,68.80
2023-04-12T05:11:06.924Z,68.50
2023-04-12T05:12:09.030Z,68.43
2023-04-12T05:13:11.182Z,68.09
2023-04-12T05:14:13.334Z,67.57
2023-04-12T05:15:15.461Z,67.44
2023-04-12T05:16:17.678Z,67.17
2023-04-12T05:17:19.916Z,67.11
2023-04-12T05:18:22.158Z,66.94
2023-04-12T05:19:24.325Z,67.19
2023-04-12T05:20:26.431Z,67.00
2023-04-12T05:21:28.925Z,66.52
2023-04-12T05:22:31.111Z,66.41
2023-04-12T05:23:36.234Z,66.21
2023-04-12T05:24:38.411Z,66.36
2023-04-12T05:25:48.300Z,65.86
2023-04-12T05:26:50.875Z,65.75
2023-04-12T05:27:52.994Z,65.58
2023-04-12T05:28:55.301Z,65.70
2023-04-12T05:29:58.020Z,65.46
2023-04-12T05:31:00.815Z,65.49
2023-04-12T05:32:02.974Z,65.36
2023-04-12T05:33:05.116Z,65.40
2023-04-12T05:34:07.278Z,65.36
2023-04-12T05:35:09.446Z,65.48
2023-04-12T05:36:12.080Z,65.09
2023-04-12T05:37:14.207Z,64.85
2023-04-12T05:38:16.600Z,64.75
2023-04-12T05:39:20.603Z,64.82
2023-04-12T05:40:23.044Z,64.68
2023-04-12T05:41:25.356Z,64.23
2023-04-12T05:42:28.506Z,64.47
2023-04-12T05:43:30.915Z,64.53
2023-04-12T05:44:36.440Z,64.22
2023-04-12T05:45:39.650Z,64.27
2023-04-12T05:46:41.769Z,64.69
2023-04-12T05:47:43.945Z,64.19
2023-04-12T05:48:46.068Z,64.21
2023-04-12T05:49:48.280Z,64.01
2023-04-12T05:50:54.051Z,63.67
2023-04-12T05:51:56.133Z,63.70
2023-04-12T05:52:58.307Z,63.56
2023-04-12T05:54:01.328Z,63.82
2023-04-12T05:55:03.852Z,63.24
2023-04-12T05:56:06.652Z,64.36
2023-04-12T05:57:08.971Z,63.21
2023-04-12T05:58:11.161Z,63.02
2023-04-12T05:59:13.672Z,62.81
2023-04-12T06:00:19.142Z,62.45
2023-04-12T06:01:21.359Z,62.76
2023-04-12T06:02:26.011Z,62.86
2023-04-12T06:03:30.818Z,63.29
2023-04-12T06:04:48.802Z,63.39
2023-04-12T06:05:53.028Z,63.23
2023-04-12T06:06:56.383Z,62.75
2023-04-12T06:08:00.020Z,62.81
2023-04-12T06:09:02.973Z,63.49
2023-04-12T06:10:07.421Z,63.94
2023-04-12T06:11:12.148Z,63.63
2023-04-12T06:12:14.217Z,63.57
2023-04-12T06:13:16.514Z,63.67
2023-04-12T06:14:18.676Z,64.07
2023-04-12T06:15:21.081Z,63.64
2023-04-12T06:16:23.431Z,63.88
2023-04-12T06:17:25.675Z,63.76
2023-04-12T06:18:27.788Z,64.00
2023-04-12T06:19:29.884Z,63.48
2023-04-12T06:20:32.048Z,63.42
2023-04-12T06:21:34.190Z,63.39
2023-04-12T06:22:37.194Z,63.47
2023-04-12T06:23:39.338Z,63.19
2023-04-12T06:24:41.457Z,63.43
2023-04-12T06:25:43.599Z,63.24
2023-04-12T06:26:47.852Z,63.81
2023-04-12T06:27:49.996Z,62.83
2023-04-12T06:28:52.161Z,63.05
2023-04-12T06:29:54.430Z,62.93
2023-04-12T06:30:56.762Z,62.92
2023-04-12T06:31:59.107Z,62.62
2023-04-12T06:33:01.314Z,62.54
2023-04-12T06:34:03.611Z,62.35
2023-04-12T06:35:06.215Z,62.41
2023-04-12T06:36:09.022Z,62.17
2023-04-12T06:37:11.355Z,62.27
2023-04-12T06:38:13.646Z,62.09
2023-04-12T06:39:17.045Z,62.18
2023-04-12T06:40:19.667Z,62.00
2023-04-12T06:41:22.170Z,61.63
2023-04-12T06:42:24.676Z,61.75
2023-04-12T06:43:26.764Z,61.63
2023-04-12T06:44:28.897Z,62.08
2023-04-12T06:45:31.110Z,61.79
2023-04-12T06:46:33.236Z,62.01
2023-04-12T06:47:35.531Z,61.67
2023-04-12T06:48:37.620Z,61.60
2023-04-12T06:49:39.730Z,61.55
2023-04-12T06:50:41.820Z,61.22
2023-04-12T06:51:44.442Z,61.24
2023-04-12T06:52:48.548Z,61.06
2023-04-12T06:53:50.656Z,60.20
2023-04-12T06:54:53.307Z,60.23
2023-04-12T06:55:55.717Z,59.96
2023-04-12T06:56:58.043Z,60.30
2023-04-12T06:58:00.533Z,60.07
2023-04-12T06:59:02.764Z,59.97
2023-04-12T07:00:05.438Z,59.56
2023-04-12T07:01:08.643Z,59.68
2023-04-12T07:02:10.888Z,59.42
2023-04-12T07:03:13.077Z,59.65
2023-04-12T07:04:16.990Z,59.79
2023-04-12T07:05:19.335Z,59.89
2023-04-12T07:06:25.603Z,59.65
2023-04-12T07:07:28.032Z,59.37
2023-04-12T07:08:30.689Z,59.26
2023-04-12T07:09:32.952Z,59.35
2023-04-12T07:10:39.166Z,58.88
2023-04-12T07:11:41.568Z,58.86
2023-04-12T07:12:43.672Z,59.02
2023-04-12T07:13:45.828Z,58.92
2023-04-12T07:14:47.949Z,58.51
2023-04-12T07:15:50.848Z,58.71
2023-04-12T07:16:53.034Z,58.33
2023-04-12T07:17:56.065Z,58.55
2023-04-12T07:18:59.641Z,58.17
2023-04-12T07:20:02.112Z,57.91
2023-04-12T07:21:07.201Z,57.50
2023-04-12T07:22:09.792Z,57.47
2023-04-12T07:23:12.972Z,57.49
2023-04-12T07:24:15.077Z,57.38
2023-04-12T07:25:17.255Z,57.72
2023-04-12T07:26:19.562Z,57.65
2023-04-12T07:27:21.778Z,57.46
2023-04-12T07:28:23.943Z,57.07
2023-04-12T07:29:26.206Z,56.76
2023-04-12T07:30:28.367Z,56.66
2023-04-12T07:31:30.937Z,56.73
2023-04-12T07:32:33.248Z,56.45
2023-04-12T07:33:38.255Z,56.21
2023-04-12T07:34:42.201Z,55.71
2023-04-12T07:35:44.372Z,56.21
2023-04-12T07:36:46.588Z,56.02
2023-04-12T07:37:48.741Z,56.33
2023-04-12T07:38:55.857Z,55.81
2023-04-12T07:39:58.407Z,56.15
2023-04-12T07:41:00.594Z,56.33
2023-04-12T07:42:03.294Z,56.18
2023-04-12T07:43:05.746Z,56.07
2023-04-12T07:44:08.292Z,56.79
2023-04-12T07:45:10.738Z,56.39
2023-04-12T07:46:12.878Z,56.19
2023-04-12T07:47:14.997Z,56.15
2023-04-12T07:48:17.469Z,55.92
2023-04-12T07:49:19.852Z,56.16
2023-04-12T07:50:21.960Z,55.73
2023-04-12T07:51:24.089Z,56.04
2023-04-12T07:52:26.552Z,56.00
2023-04-12T07:53:29.064Z,55.81
2023-04-12T07:54:31.263Z,56.11
2023-04-12T07:55:33.467Z,56.16
2023-04-12T07:56:36.159Z,56.07
2023-04-12T07:57:38.293Z,56.51
2023-04-12T07:58:40.512Z,56.59
2023-04-12T07:59:42.634Z,56.12
2023-04-12T08:00:48.628Z,55.95
2023-04-12T08:01:50.981Z,55.34
2023-04-12T08:02:53.668Z,55.33
2023-04-12T08:03:56.287Z,54.83
2023-04-12T08:04:58.809Z,54.83
2023-04-12T08:06:01.570Z,54.44
2023-04-12T08:07:04.117Z,54.55
2023-04-12T08:08:10.909Z,54.82
2023-04-12T08:09:13.137Z,54.84
2023-04-12T08:10:15.427Z,54.45
2023-04-12T08:11:17.615Z,54.25
2023-04-12T08:12:21.306Z,53.79
2023-04-12T08:13:23.507Z,53.19
2023-04-12T08:14:26.615Z,53.34
2023-04-12T08:15:28.811Z,53.65
2023-04-12T08:16:31.113Z,53.66
2023-04-12T08:17:33.369Z,53.31
2023-04-12T08:18:35.527Z,53.24
2023-04-12T08:19:37.949Z,53.45
2023-04-12T08:20:44.249Z,53.28
2023-04-12T08:21:46.684Z,52.96
2023-04-12T08:22:49.273Z,52.89
2023-04-12T08:23:51.728Z,50.80
2023-04-12T08:24:53.810Z,49.96
2023-04-12T08:26:03.707Z,49.31
2023-04-12T08:27:06.114Z,49.09
2023-04-12T08:28:08.317Z,49.33
2023-04-12T08:29:10.808Z,49.27
2023-04-12T08:30:13.579Z,49.42
2023-04-12T08:31:16.513Z,49.41
2023-04-12T08:32:18.702Z,49.35
2023-04-12T08:33:20.883Z,49.68
2023-04-12T08:34:24.630Z,49.98
2023-04-12T08:35:27.400Z,49.83
2023-04-12T08:36:29.652Z,49.72
2023-04-12T08:37:32.027Z,50.18
2023-04-12T08:38:45.641Z,49.42
2023-04-12T08:39:48.711Z,48.65
2023-04-12T08:40:55.472Z,47.24
2023-04-12T08:41:57.678Z,46.54
2023-04-12T08:43:03.581Z,46.28
2023-04-12T08:44:05.721Z,46.10
2023-04-12T08:45:09.446Z,46.21
2023-04-12T08:46:15.747Z,46.21
2023-04-12T08:47:18.371Z,46.43
2023-04-12T08:48:23.227Z,45.56
2023-04-12T08:49:25.437Z,45.20
2023-04-12T08:50:27.594Z,44.67
2023-04-12T08:51:29.944Z,43.10
2023-04-12T08:52:34.683Z,41.91
2023-04-12T08:53:36.788Z,41.02
2023-04-12T08:54:38.893Z,40.88
2023-04-12T08:55:45.167Z,40.08
2023-04-12T08:56:48.046Z,39.60
2023-04-12T08:57:53.154Z,39.15
2023-04-12T08:58:55.436Z,39.38
2023-04-12T08:59:59.779Z,38.27
2023-04-12T09:01:01.913Z,38.07
2023-04-12T09:02:04.229Z,37.46
2023-04-12T09:03:06.907Z,37.70
2023-04-12T09:04:09.397Z,37.93
2023-04-12T09:05:12.521Z,37.91
2023-04-12T09:06:14.692Z,38.10
2023-04-12T09:07:17.372Z,37.77
2023-04-12T09:08:19.475Z,38.11
2023-04-12T09:09:40.761Z,37.36
2023-04-12T09:10:42.908Z,38.09
2023-04-12T09:11:45.039Z,37.86
2023-04-12T09:12:47.305Z,37.24
2023-04-12T09:13:49.396Z,37.32
2023-04-12T09:15:23.064Z,37.25
2023-04-12T09:16:39.698Z,37.13
2023-04-12T09:17:43.097Z,37.45
2023-04-12T09:18:52.554Z,36.87
2023-04-12T09:19:57.708Z,36.72
2023-04-12T09:21:10.411Z,36.91
2023-04-12T09:22:12.737Z,35.61
2023-04-12T09:23:24.815Z,35.45
2023-04-12T09:24:27.578Z,35.00
2023-04-12T09:25:55.829Z,35.45
2023-04-12T09:27:07.096Z,36.07
2023-04-12T09:28:30.367Z,36.12
2023-04-12T09:29:36.864Z,35.65
2023-04-12T09:30:43.177Z,35.50
2023-04-12T09:32:02.656Z,35.86
2023-04-12T09:33:12.740Z,34.64
2023-04-12T09:34:15.117Z,34.62
2023-04-12T09:35:17.378Z,34.64
2023-04-12T09:36:21.198Z,34.54
2023-04-12T09:37:23.684Z,33.82
2023-04-12T09:38:25.994Z,34.31
2023-04-12T09:39:35.104Z,34.75
2023-04-12T09:40:37.763Z,35.00
2023-04-12T09:41:39.864Z,35.51
2023-04-12T09:42:56.110Z,35.79
2023-04-12T09:44:01.663Z,35.45
2023-04-12T09:45:25.486Z,34.69
2023-04-12T09:46:28.220Z,33.97
2023-04-12T09:47:40.367Z,33.53
2023-04-12T09:48:49.998Z,32.63
2023-04-12T09:49:52.204Z,32.29
2023-04-12T09:50:59.541Z,32.67
2023-04-12T09:52:02.074Z,32.09
2023-04-12T09:53:04.484Z,32.18
2023-04-12T09:54:06.958Z,31.69
2023-04-12T09:55:11.132Z,32.33
2023-04-12T09:56:13.738Z,30.66
2023-04-12T09:57:19.011Z,31.03
2023-04-12T09:58:21.576Z,32.06
2023-04-12T09:59:27.230Z,31.71
2023-04-12T10:00:30.631Z,32.20
2023-04-12T10:01:43.296Z,32.08
2023-04-12T10:02:51.716Z,32.05
2023-04-12T10:03:55.114Z,32.80
2023-04-12T10:04:57.634Z,32.14
2023-04-12T10:06:00.137Z,32.13
2023-04-12T10:07:02.454Z,32.33
2023-04-12T10:08:05.724Z,32.16
2023-04-12T10:09:09.037Z,31.55
2023-04-12T10:10:12.700Z,31.44
2023-04-12T10:11:14.940Z,31.78
2023-04-12T10:12:17.135Z,31.54
2023-04-12T10:13:19.800Z,31.21
2023-04-12T10:14:22.665Z,31.89
2023-04-12T10:15:25.626Z,31.53
2023-04-12T10:16:28.092Z,31.40
2023-04-12T10:17:30.384Z,31.28
2023-04-12T10:18:37.228Z,32.09
2023-04-12T10:19:39.707Z,32.04
2023-04-12T10:20:42.121Z,32.34
2023-04-12T10:21:44.292Z,32.66
2023-04-12T10:22:56.793Z,32.17
2023-04-12T10:23:59.118Z,30.77
2023-04-12T10:25:01.274Z,30.39
2023-04-12T10:26:04.887Z,30.35
2023-04-12T10:27:07.068Z,31.28
2023-04-12T10:28:23.046Z,31.11
2023-04-12T10:29:27.241Z,30.25
2023-04-12T10:30:31.168Z,29.79
2023-04-12T10:31:34.228Z,29.07
2023-04-12T10:32:36.524Z,29.56
2023-04-12T10:33:38.669Z,29.72
2023-04-12T10:34:42.709Z,29.33
2023-04-12T10:36:03.903Z,30.08
2023-04-12T10:37:06.629Z,30.55
2023-04-12T10:38:08.743Z,31.15
2023-04-12T10:39:11.403Z,31.05
2023-04-12T10:40:19.206Z,30.86
2023-04-12T10:41:21.867Z,30.20
2023-04-12T10:42:26.827Z,30.09
2023-04-12T10:43:29.094Z,30.47
2023-04-12T10:44:31.219Z,29.87
2023-04-12T10:45:34.182Z,29.48
2023-04-12T10:46:39.549Z,28.59
2023-04-12T10:47:48.061Z,29.53
2023-04-12T10:48:53.464Z,29.22
2023-04-12T10:50:20.311Z,28.26
2023-04-12T10:51:28.669Z,27.51
2023-04-12T10:52:30.950Z,27.12
2023-04-12T10:53:33.125Z,26.37
2023-04-12T10:54:36.249Z,27.42
2023-04-12T10:55:42.856Z,27.61
2023-04-12T10:56:46.351Z,27.71
2023-04-12T10:57:49.743Z,27.79
2023-04-12T10:58:52.010Z,27.76
2023-04-12T10:59:56.950Z,27.69
2023-04-12T11:00:59.584Z,26.51
2023-04-12T11:02:04.985Z,26.21
2023-04-12T11:03:11.916Z,25.12
2023-04-12T11:04:20.622Z,25.39
2023-04-12T11:05:23.426Z,25.07
2023-04-12T11:06:41.439Z,24.24
2023-04-12T11:07:44.748Z,24.32
2023-04-12T11:08:47.680Z,23.24
2023-04-12T11:09:50.979Z,24.15
2023-04-12T11:11:00.188Z,25.30
2023-04-12T11:12:05.138Z,25.86
2023-04-12T11:13:09.200Z,25.79
2023-04-12T11:14:11.433Z,26.03
2023-04-12T11:15:14.049Z,26.36
2023-04-12T11:16:16.709Z,25.62
2023-04-12T11:17:21.112Z,26.40
2023-04-12T11:18:23.589Z,25.94
2023-04-12T11:19:25.962Z,26.09
2023-04-12T11:20:28.243Z,25.27
2023-04-12T11:21:30.720Z,25.99
2023-04-12T11:22:33.282Z,25.42
2023-04-12T11:23:36.445Z,25.88
2023-04-12T11:24:40.078Z,25.49
2023-04-12T11:25:42.215Z,26.07
2023-04-12T11:26:45.122Z,25.83
2023-04-12T11:27:51.568Z,25.62
2023-04-12T11:28:56.653Z,26.11
2023-04-12T11:30:00.976Z,26.20
2023-04-12T11:31:03.269Z,25.56
2023-04-12T11:32:11.419Z,25.53
2023-04-12T11:33:31.280Z,24.47
2023-04-12T11:34:34.566Z,24.50
2023-04-12T11:35:36.772Z,24.37
2023-04-12T11:36:39.247Z,24.58
2023-04-12T11:37:41.591Z,24.24
2023-04-12T11:38:46.252Z,23.91
2023-04-12T11:39:52.353Z,23.35
2023-04-12T11:40:54.524Z,23.91
2023-04-12T11:41:57.055Z,23.73
2023-04-12T11:43:00.046Z,23.66
2023-04-12T11:44:02.201Z,23.62
2023-04-12T11:45:12.045Z,23.49
2023-04-12T11:46:19.063Z,23.59
2023-04-12T11:47:23.094Z,23.98
2023-04-12T11:48:26.569Z,23.91
2023-04-12T11:49:28.708Z,23.24
2023-04-12T11:50:31.642Z,22.53
2023-04-12T11:51:35.809Z,22.31
2023-04-12T11:52:38.165Z,23.10
2023-04-12T11:53:40.485Z,23.72
2023-04-12T11:54:44.253Z,24.04
2023-04-12T11:55:50.044Z,23.86
2023-04-12T11:56:52.584Z,24.29
2023-04-12T11:57:56.019Z,23.59
2023-04-12T11:58:58.265Z,23.68
2023-04-12T12:00:01.127Z,23.11
2023-04-12T12:01:04.054Z,23.24
2023-04-12T12:02:21.466Z,23.60
2023-04-12T12:03:25.561Z,22.36
2023-04-12T12:04:31.608Z,22.35
2023-04-12T12:05:37.478Z,21.67
2023-04-12T12:06:40.396Z,21.63
2023-04-12T12:07:42.767Z,21.74
2023-04-12T12:08:45.037Z,22.29
2023-04-12T12:09:47.273Z,22.77
2023-04-12T12:11:06.534Z,22.93
2023-04-12T12:12:13.179Z,22.70
2023-04-12T12:13:16.105Z,22.42
2023-04-12T12:14:22.854Z,22.30
2023-04-12T12:15:29.851Z,21.67
2023-04-12T12:16:32.118Z,22.02
2023-04-12T12:17:40.091Z,22.58
2023-04-12T12:18:46.837Z,21.42
2023-04-12T12:19:48.992Z,21.03
2023-04-12T12:20:52.820Z,19.89
2023-04-12T12:21:55.229Z,20.68
2023-04-12T12:22:57.356Z,20.35
2023-04-12T12:23:59.700Z,20.36
2023-04-12T12:25:02.365Z,20.58
2023-04-12T12:26:18.323Z,20.97
2023-04-12T12:27:33.556Z,20.88
2023-04-12T12:28:39.784Z,21.08
2023-04-12T12:29:42.009Z,21.03
2023-04-12T12:30:44.144Z,20.61
2023-04-12T12:31:49.885Z,20.17
2023-04-12T12:32:54.635Z,20.53
2023-04-12T12:33:58.314Z,21.17
2023-04-12T12:35:00.858Z,21.56
2023-04-12T12:36:03.111Z,20.74
2023-04-12T12:37:08.527Z,20.28
2023-04-12T12:38:10.665Z,20.53
2023-04-12T12:39:13.032Z,20.16
2023-04-12T12:40:16.446Z,20.04
2023-04-12T12:41:20.468Z,20.68
2023-04-12T12:42:22.606Z,19.99
2023-04-12T12:43:25.723Z,20.20
2023-04-12T12:44:27.831Z,19.62
2023-04-12T12:45:32.078Z,20.86
2023-04-12T12:47:58.712Z,21.05
2023-04-12T12:49:00.964Z,20.13
2023-04-12T12:50:03.371Z,21.30
2023-04-12T12:51:05.902Z,20.88
2023-04-12T12:52:08.011Z,20.51
2023-04-12T12:53:10.770Z,20.50
2023-04-12T12:54:12.849Z,19.93
2023-04-12T12:55:15.863Z,20.79
2023-04-12T12:56:18.056Z,19.48
2023-04-12T12:57:20.267Z,19.25
2023-04-12T12:58:22.456Z,19.67
2023-04-12T12:59:25.985Z,20.26
2023-04-12T13:00:29.448Z,20.44
2023-04-12T13:01:31.626Z,20.83
2023-04-12T13:02:34.296Z,19.95
2023-04-12T13:03:36.828Z,19.56
2023-04-12T13:04:39.280Z,19.84
2023-04-12T13:05:41.574Z,20.11
2023-04-12T13:06:43.746Z,19.11
2023-04-12T13:07:46.680Z,18.89
2023-04-12T13:08:48.790Z,19.07
2023-04-12T13:09:51.071Z,19.33
2023-04-12T13:10:53.491Z,19.04
2023-04-12T13:11:57.240Z,19.49
2023-04-12T13:12:59.425Z,19.99
2023-04-12T13:14:01.571Z,19.97
2023-04-12T13:15:20.389Z,19.90
2023-04-12T13:16:26.254Z,19.85
2023-04-12T13:17:30.516Z,19.30
2023-04-12T13:18:32.793Z,18.54
2023-04-12T13:19:34.909Z,18.57
2023-04-12T13:20:37.022Z,18.04
2023-04-12T13:21:39.153Z,18.43
2023-04-12T13:22:41.285Z,18.08
2023-04-12T13:23:43.343Z,19.24
2023-04-12T13:24:45.775Z,19.60
2023-04-12T13:25:47.877Z,18.95
2023-04-12T13:26:49.995Z,18.77
2023-04-12T13:27:52.487Z,19.31
2023-04-12T13:28:54.663Z,19.45
2023-04-12T13:29:56.766Z,18.51
2023-04-12T13:30:58.923Z,18.29
2023-04-12T13:32:01.176Z,18.76
2023-04-12T13:33:03.946Z,18.15
2023-04-12T13:34:06.132Z,17.62
2023-04-12T13:35:08.554Z,17.57
2023-04-12T13:36:10.928Z,17.96
2023-04-12T13:37:13.206Z,17.79
2023-04-12T13:38:15.519Z,17.23
2023-04-12T13:39:17.831Z,17.75
2023-04-12T13:40:19.970Z,18.06
2023-04-12T13:41:22.049Z,17.43
2023-04-12T13:42:24.470Z,17.93
2023-04-12T13:43:26.637Z,18.76
2023-04-12T13:44:29.143Z,18.80
2023-04-12T13:45:33.516Z,18.76